FW7460 Weather Reports


Display with metric or nautical units.
time (UTC)temp
F
wind
direction
speed
MPH
gust
MPH
rain 1hr
in
rain 24hr
in
rain mn
in
humidity
%
barometer
mb
20221204013148 44 223 2.0 3.0 0.00 0.00 0.00 46 1014.1
20221204012648 43 192 0.0 3.0 0.00 0.00 0.00 46 1014.3
20221204012147 43 115 3.0 6.0 0.00 0.00 0.00 46 1014.1
20221204011647 42 249 2.0 2.0 0.00 0.00 0.00 49 1014.4
20221204011146 43 228 0.0 1.0 0.00 0.00 0.00 47 1014.3
20221204010646 44 172 2.0 5.0 0.00 0.00 0.00 47 1014.0
20221204010146 43 190 1.0 2.0 0.00 0.00 0.00 47 1014.1
20221204005644 42 232 5.0 6.0 0.00 0.00 0.00 49 1014.2
20221204005143 42 323 2.0 5.0 0.00 0.00 0.00 48 1014.0
20221204004644 45 181 3.0 3.0 0.00 0.00 0.00 45 1013.8
20221204004143 45 142 2.0 3.0 0.00 0.00 0.00 44 1014.0
20221204003643 45 199 0.0 2.0 0.00 0.00 0.00 44 1013.5
20221204003143 46 155 4.0 5.0 0.00 0.00 0.00 44 1013.6
20221204002641 46 181 3.0 3.0 0.00 0.00 0.00 42 1013.5
20221204002140 46 206 0.0 1.0 0.00 0.00 0.00 42 1013.4
20221204001639 47 175 2.0 3.0 0.00 0.00 0.00 41 1013.7
20221204001138 46 101 3.0 5.0 0.00 0.00 0.00 42 1013.5
20221204000637 47 180 2.0 2.0 0.00 0.00 0.00 41 1013.5
20221204000137 46 321 3.0 3.0 0.00 0.00 0.00 42 1013.4
20221203235635 49 308 5.0 6.0 0.00 0.00 0.00 41 1013.6
20221203235135 48 83 5.0 6.0 0.00 0.00 0.00 39 1013.5
20221203234633 47 108 3.0 5.0 0.00 0.00 0.00 41 1013.5
20221203234133 49 67 5.0 6.0 0.00 0.00 0.00 39 1013.4
20221203233630 50 153 2.0 3.0 0.00 0.00 0.00 36 1013.3
20221203233129 50 115 2.0 2.0 0.00 0.00 0.00 37 1013.3
20221203232629 50 155 3.0 5.0 0.00 0.00 0.00 37 1013.5
20221203232128 51 170 3.0 5.0 0.00 0.00 0.00 36 1013.4
20221203231627 52 220 3.0 8.0 0.00 0.00 0.00 34 1013.3
20221203231127 52 225 3.0 3.0 0.00 0.00 0.00 34 1013.4
20221203230625 52 212 3.0 6.0 0.00 0.00 0.00 34 1013.0
20221203230124 53 231 3.0 6.0 0.00 0.00 0.00 34 1013.1
20221203225624 53 225 4.0 7.0 0.00 0.00 0.00 34 1013.1
20221203225123 53 244 1.0 2.0 0.00 0.00 0.00 34 1012.8
20221203224623 53 260 5.0 9.0 0.00 0.00 0.00 33 1013.1
20221203224122 53 237 4.0 10.0 0.00 0.00 0.00 33 1013.0
20221203223622 53 229 4.0 8.0 0.00 0.00 0.00 33 1013.0
20221203223121 53 228 5.0 13.0 0.00 0.00 0.00 33 1013.0
20221203222620 53 252 7.0 11.0 0.00 0.00 0.00 33 1013.3
20221203222119 53 224 6.0 11.0 0.00 0.00 0.00 33 1013.3
20221203221619 53 274 9.0 13.0 0.00 0.00 0.00 33 1013.3
20221203221117 53 228 10.0 11.0 0.00 0.00 0.00 32 1013.4
20221203220616 53 286 9.0 10.0 0.00 0.00 0.00 32 1013.1
20221203220114 53 241 5.0 9.0 0.00 0.00 0.00 32 1013.0
20221203215613 53 214 6.0 14.0 0.00 0.00 0.00 32 1013.3
20221203215112 53 269 10.0 13.0 0.00 0.00 0.00 32 1013.3
20221203214612 53 307 11.0 17.0 0.00 0.00 0.00 32 1013.4
20221203214111 53 198 7.0 13.0 0.00 0.00 0.00 32 1013.1
20221203213611 54 215 9.0 10.0 0.00 0.00 0.00 32 1013.4
20221203213109 53 214 9.0 14.0 0.00 0.00 0.00 32 1013.5
20221203212607 53 278 12.0 18.0 0.00 0.00 0.00 32 1013.6
20221203212107 53 192 12.0 23.0 0.00 0.00 0.00 32 1013.5
20221203211606 53 200 12.0 20.0 0.00 0.00 0.00 32 1013.7
20221203211106 53 247 9.0 20.0 0.00 0.00 0.00 32 1013.6
20221203210606 54 185 9.0 17.0 0.00 0.00 0.00 32 1013.8
20221203210105 54 200 8.0 16.0 0.00 0.00 0.00 32 1013.8
20221203205603 54 205 8.0 16.0 0.00 0.00 0.00 32 1014.0
20221203205102 53 221 15.0 18.0 0.00 0.00 0.00 32 1014.0
20221203204600 54 240 15.0 18.0 0.00 0.00 0.00 31 1014.1
20221203204059 53 211 7.0 16.0 0.00 0.00 0.00 31 1014.2
20221203203558 54 222 9.0 13.0 0.00 0.00 0.00 31 1014.1
20221203203058 54 206 13.0 16.0 0.00 0.00 0.00 31 1013.8
20221203202556 53 258 15.0 24.0 0.00 0.00 0.00 31 1014.3
20221203202055 54 245 12.0 20.0 0.00 0.00 0.00 30 1014.3
20221203201554 54 228 11.0 20.0 0.00 0.00 0.00 30 1014.4
20221203201052 54 227 11.0 18.0 0.00 0.00 0.00 30 1014.2
20221203200551 54 244 12.0 21.0 0.00 0.00 0.00 30 1014.4
20221203200050 54 302 12.0 15.0 0.00 0.00 0.00 29 1014.4
20221203195548 54 291 13.0 16.0 0.00 0.00 0.00 29 1014.4
20221203195047 54 286 9.0 13.0 0.00 0.00 0.00 29 1014.4
20221203194547 55 267 11.0 14.0 0.00 0.00 0.00 28 1014.4
20221203194045 55 246 5.0 8.0 0.00 0.00 0.00 27 1014.4
20221203193544 55 238 9.0 11.0 0.00 0.00 0.00 27 1014.4
20221203193043 56 223 6.0 10.0 0.00 0.00 0.00 26 1014.7
20221203192542 55 260 12.0 15.0 0.00 0.00 0.00 26 1014.5
20221203192041 55 296 15.0 18.0 0.00 0.00 0.00 26 1014.3
20221203191541 55 223 10.0 18.0 0.00 0.00 0.00 26 1014.7
20221203191040 55 210 7.0 11.0 0.00 0.00 0.00 24 1014.8
20221203190540 55 208 4.0 8.0 0.00 0.00 0.00 24 1015.0
20221203190039 55 221 6.0 9.0 0.00 0.00 0.00 24 1015.1
20221203185537 55 220 6.0 15.0 0.00 0.00 0.00 23 1014.8
20221203185037 55 168 8.0 18.0 0.00 0.00 0.00 23 1015.0
20221203184535 55 168 13.0 18.0 0.00 0.00 0.00 22 1015.4
20221203184035 54 209 14.0 18.0 0.00 0.00 0.00 22 1015.1
20221203183533 55 156 10.0 14.0 0.00 0.00 0.00 22 1015.3
20221203183033 54 184 12.0 15.0 0.00 0.00 0.00 22 1015.5
20221203182531 54 167 14.0 18.0 0.00 0.00 0.00 22 1015.6
20221203182029 53 183 11.0 15.0 0.00 0.00 0.00 22 1015.4
20221203181527 53 214 13.0 18.0 0.00 0.00 0.00 22 1015.5
20221203181027 53 193 10.0 20.0 0.00 0.00 0.00 23 1015.7
20221203180527 52 185 7.0 23.0 0.00 0.00 0.00 23 1015.8
20221203180026 52 179 21.0 29.0 0.00 0.00 0.00 23 1015.8
20221203175524 51 208 10.0 21.0 0.00 0.00 0.00 23 1015.6
20221203175024 51 217 21.0 27.0 0.00 0.00 0.00 23 1015.8
20221203174523 51 246 9.0 26.0 0.00 0.00 0.00 23 1015.8
20221203174022 50 160 19.0 25.0 0.00 0.00 0.00 23 1015.5
20221203173522 50 233 17.0 29.0 0.00 0.00 0.00 23 1015.7
20221203173021 50 208 21.0 29.0 0.00 0.00 0.00 23 1015.7
20221203172522 50 174 16.0 32.0 0.00 0.00 0.00 23 1015.8
20221203172020 49 157 15.0 24.0 0.00 0.00 0.00 23 1016.1
20221203171519 49 194 17.0 26.0 0.00 0.00 0.00 23 1016.2
20221203171018 48 260 15.0 23.0 0.00 0.00 0.00 24 1016.1
20221203170516 48 233 10.0 15.0 0.00 0.00 0.00 23 1016.4
20221203170016 48 208 7.0 18.0 0.00 0.00 0.00 24 1016.5
20221203165514 48 150 15.0 20.0 0.00 0.00 0.00 23 1016.8
20221203165012 47 145 11.0 20.0 0.00 0.00 0.00 24 1016.9
20221203164512 47 174 10.0 20.0 0.00 0.00 0.00 24 1016.9
20221203164012 47 141 11.0 23.0 0.00 0.00 0.00 24 1016.8
20221203163510 46 163 21.0 26.0 0.00 0.00 0.00 24 1016.9
20221203163009 46 177 8.0 11.0 0.00 0.00 0.00 24 1016.9
20221203162509 45 212 9.0 11.0 0.00 0.00 0.00 25 1017.0
20221203162009 44 200 9.0 20.0 0.00 0.00 0.00 25 1017.4
20221203161509 44 219 7.0 15.0 0.00 0.00 0.00 27 1017.3
20221203161008 44 198 10.0 14.0 0.00 0.00 0.00 27 1017.3
20221203160508 43 110 4.0 15.0 0.00 0.00 0.00 27 1017.4
20221203160007 42 172 6.0 8.0 0.00 0.00 0.00 30 1017.8
20221203155506 42 218 5.0 17.0 0.00 0.00 0.00 30 1017.6
20221203155005 36 193 6.0 8.0 0.00 0.00 0.00 41 1017.6
20221203154504 33 219 2.0 2.0 0.00 0.00 0.00 50 1017.7
20221203154003 30 160 3.0 5.0 0.00 0.00 0.00 52 1017.7
20221203153503 26 112 3.0 5.0 0.00 0.00 0.00 59 1018.3
20221203153003 28 111 5.0 10.0 0.00 0.00 0.00 53 1018.0
20221203152501 28 100 9.0 11.0 0.00 0.00 0.00 54 1018.0
20221203152001 28 150 9.0 10.0 0.00 0.00 0.00 52 1018.0
20221203151501 27 168 4.0 7.0 0.00 0.00 0.00 54 1018.1
20221203151000 26 157 10.0 10.0 0.00 0.00 0.00 56 1018.3
20221203150500 25 154 7.0 9.0 0.00 0.00 0.00 57 1018.2
20221203150000 24 198 3.0 7.0 0.00 0.00 0.00 59 1018.5
20221203145500 23 190 1.0 5.0 0.00 0.00 0.00 62 1018.3
20221203144959 20 158 3.0 3.0 0.00 0.00 0.00 64 1018.1
20221203144459 19 158 4.0 7.0 0.00 0.00 0.00 66 1018.3
20221203143958 19 171 5.0 5.0 0.00 0.00 0.00 66 1018.4
20221203143458 19 188 2.0 3.0 0.00 0.00 0.00 67 1018.4
20221203142958 18 120 4.0 5.0 0.00 0.00 0.00 68 1018.4
20221203142455 17 164 2.0 2.0 0.00 0.00 0.00 69 1018.5
20221203141954 17 182 2.0 5.0 0.00 0.00 0.00 70 1018.7
20221203141454 17 158 1.0 1.0 0.00 0.00 0.00 70 1018.7
20221203140952 17 192 1.0 1.0 0.00 0.00 0.00 70 1018.8
20221203140452 17 149 1.0 2.0 0.00 0.00 0.00 69 1018.7
20221203135952 17 188 1.0 2.0 0.00 0.00 0.00 70 1018.5
20221203135450 17 153 2.0 2.0 0.00 0.00 0.00 70 1018.7
20221203134949 17 168 2.0 2.0 0.00 0.00 0.00 71 1018.7
20221203134450 17 99 2.0 2.0 0.00 0.00 0.00 71 1018.2
20221203133948 16 135 2.0 3.0 0.00 0.00 0.00 72 1018.4
20221203133446 16 216 0.0 0.0 0.00 0.00 0.00 72 1018.5
20221203132945 17 192 1.0 1.0 0.00 0.00 0.00 71 1018.4
20221203132444 17 151 3.0 5.0 0.00 0.00 0.00 72 1018.2
20221203131943 17 179 2.0 2.0 0.00 0.00 0.00 72 1018.4
20221203131441 16 171 1.0 1.0 0.00 0.00 0.00 72 1018.2
20221203130940 17 176 1.0 1.0 0.00 0.00 0.00 72 1017.8
20221203130439 17 154 2.0 2.0 0.00 0.00 0.00 72 1018.0
20221203125939 17 150 3.0 5.0 0.00 0.00 0.00 72 1018.0
20221203125437 17 199 1.0 1.0 0.00 0.00 0.00 71 1017.8
20221203124936 17 194 1.0 3.0 0.00 0.00 0.00 71 1017.8
20221203124436 17 185 1.0 2.0 0.00 0.00 0.00 72 1018.1
20221203123934 17 185 1.0 3.0 0.00 0.00 0.00 73 1018.3
20221203123434 17 174 3.0 5.0 0.00 0.00 0.00 72 1018.2
20221203122932 17 203 0.0 1.0 0.00 0.00 0.00 72 1018.0
20221203122432 17 180 1.0 5.0 0.00 0.00 0.00 72 1018.0
20221203121932 17 151 3.0 3.0 0.00 0.00 0.00 71 1017.8
20221203121432 18 100 2.0 2.0 0.00 0.00 0.00 70 1017.7
20221203120931 17 181 1.0 1.0 0.00 0.00 0.00 71 1017.6
20221203120431 17 175 1.0 2.0 0.00 0.00 0.00 72 1017.5
20221203115930 17 134 2.0 2.0 0.00 0.00 0.00 73 1017.3
20221203115429 17 183 2.0 2.0 0.00 0.00 0.00 73 1017.6
20221203114929 17 185 2.0 2.0 0.00 0.00 0.00 73 1017.3
20221203114429 17 190 1.0 1.0 0.00 0.00 0.00 74 1017.3
20221203113929 16 184 1.0 1.0 0.00 0.00 0.00 75 1017.4
20221203113429 16 146 1.0 1.0 0.00 0.00 0.00 76 1016.9
20221203112929 16 154 1.0 2.0 0.00 0.00 0.00 77 1017.1
20221203112429 15 187 1.0 2.0 0.00 0.00 0.00 79 1017.3
20221203111929 15 229 1.0 2.0 0.00 0.00 0.00 79 1017.1
20221203111428 15 250 3.0 3.0 0.00 0.00 0.00 76 1017.4
20221203110928 16 242 1.0 1.0 0.00 0.00 0.00 75 1017.3
20221203110427 16 176 1.0 3.0 0.00 0.00 0.00 76 1017.1
20221203105926 16 207 0.0 2.0 0.00 0.00 0.00 76 1016.9
20221203105426 16 213 1.0 2.0 0.00 0.00 0.00 75 1017.0
20221203104925 16 180 1.0 1.0 0.00 0.00 0.00 75 1017.0
20221203104424 17 202 0.0 2.0 0.00 0.00 0.00 74 1017.3
20221203103925 17 234 1.0 2.0 0.00 0.00 0.00 73 1017.3
20221203103424 17 179 1.0 1.0 0.00 0.00 0.00 75 1016.9
20221203102922 17 186 1.0 2.0 0.00 0.00 0.00 78 1016.9
20221203102421 16 215 0.0 0.0 0.00 0.00 0.00 77 1017.0
20221203101919 17 214 0.0 1.0 0.00 0.00 0.00 77 1016.9
20221203101417 17 216 1.0 1.0 0.00 0.00 0.00 78 1016.9
20221203100916 17 193 0.0 1.0 0.00 0.00 0.00 78 1016.9
20221203100414 17 212 0.0 1.0 0.00 0.00 0.00 78 1016.5
20221203095914 17 242 2.0 2.0 0.00 0.00 0.00 76 1017.1
20221203095413 17 201 0.0 2.0 0.00 0.00 0.00 71 1016.8
20221203094913 17 169 2.0 2.0 0.00 0.00 0.00 70 1016.9
20221203094411 17 183 1.0 2.0 0.00 0.00 0.00 71 1016.8
20221203093911 17 178 2.0 3.0 0.00 0.00 0.00 71 1016.8
20221203093409 17 195 1.0 2.0 0.00 0.00 0.00 71 1016.9
20221203092908 17 181 1.0 2.0 0.00 0.00 0.00 71 1016.9
20221203092408 17 158 3.0 3.0 0.00 0.00 0.00 72 1016.9
20221203091906 17 177 2.0 2.0 0.00 0.00 0.00 72 1016.8
20221203091406 17 185 1.0 3.0 0.00 0.00 0.00 72 1016.8
20221203090905 17 172 3.0 3.0 0.00 0.00 0.00 71 1016.7
20221203090405 18 194 1.0 5.0 0.00 0.00 0.00 71 1017.0
20221203085904 19 153 3.0 3.0 0.00 0.00 0.00 68 1016.9
20221203085402 19 151 3.0 3.0 0.00 0.00 0.00 68 1016.4
20221203084901 18 150 2.0 5.0 0.00 0.00 0.00 69 1016.9
20221203084400 18 159 3.0 3.0 0.00 0.00 0.00 70 1016.8
20221203083900 18 230 0.0 1.0 0.00 0.00 0.00 69 1017.0
20221203083400 19 185 1.0 2.0 0.00 0.00 0.00 69 1016.9
20221203082858 18 177 2.0 2.0 0.00 0.00 0.00 70 1016.7
20221203082358 18 174 2.0 2.0 0.00 0.00 0.00 70 1016.9
20221203081858 18 209 0.0 0.0 0.00 0.00 0.00 70 1016.8
20221203081356 18 181 1.0 1.0 0.00 0.00 0.00 70 1016.9
20221203080856 18 183 0.0 1.0 0.00 0.00 0.00 69 1016.5
20221203080354 19 207 0.0 1.0 0.00 0.00 0.00 68 1016.5
20221203075852 19 171 3.0 3.0 0.00 0.00 0.00 66 1016.7
20221203075351 19 162 4.0 5.0 0.00 0.00 0.00 67 1016.5
20221203074850 20 148 3.0 5.0 0.00 0.00 0.00 65 1016.9
20221203074349 21 175 2.0 2.0 0.00 0.00 0.00 61 1016.9
20221203073846 21 137 2.0 3.0 0.00 0.00 0.00 61 1017.0
20221203073346 20 137 2.0 2.0 0.00 0.00 0.00 65 1016.9
20221203072844 20 188 1.0 2.0 0.00 0.00 0.00 65 1016.5
20221203072343 20 143 3.0 5.0 0.00 0.00 0.00 66 1016.8
20221203071842 20 175 5.0 6.0 0.00 0.00 0.00 67 1017.0
20221203071339 21 185 3.0 3.0 0.00 0.00 0.00 64 1016.9
20221203070838 20 159 3.0 3.0 0.00 0.00 0.00 66 1016.9
20221203070337 20 168 4.0 6.0 0.00 0.00 0.00 66 1016.8
20221203065837 21 174 4.0 5.0 0.00 0.00 0.00 63 1016.5
20221203065336 22 124 4.0 5.0 0.00 0.00 0.00 61 1016.8
20221203064834 22 113 3.0 3.0 0.00 0.00 0.00 61 1016.7
20221203064332 22 98 2.0 3.0 0.00 0.00 0.00 60 1016.5
20221203063831 22 208 0.0 1.0 0.00 0.00 0.00 59 1016.3
20221203063331 22 230 1.0 2.0 0.00 0.00 0.00 59 1016.4
20221203062831 22 219 0.0 1.0 0.00 0.00 0.00 62 1016.5
20221203062330 22 186 1.0 1.0 0.00 0.00 0.00 63 1016.8
20221203061829 22 200 0.0 1.0 0.00 0.00 0.00 64 1016.3
20221203061326 21 199 0.0 0.0 0.00 0.00 0.00 64 1016.3
20221203060825 21 221 0.0 0.0 0.00 0.00 0.00 65 1016.5
20221203060324 22 213 0.0 0.0 0.00 0.00 0.00 64 1016.3
20221203055822 22 260 1.0 2.0 0.00 0.00 0.00 64 1016.1
20221203055320 22 226 2.0 2.0 0.00 0.00 0.00 66 1016.2
20221203054820 22 227 1.0 1.0 0.00 0.00 0.00 65 1016.0
20221203054320 22 258 2.0 2.0 0.00 0.00 0.00 66 1016.0
20221203053820 23 257 3.0 3.0 0.00 0.00 0.00 63 1015.6
20221203053319 24 190 1.0 3.0 0.00 0.00 0.00 57 1015.6
20221203052818 24 177 4.0 5.0 0.00 0.00 0.00 58 1015.7
20221203052317 24 170 5.0 6.0 0.00 0.00 0.00 55 1015.7
20221203051816 24 137 4.0 6.0 0.00 0.00 0.00 55 1015.5
20221203051314 24 191 1.0 2.0 0.00 0.00 0.00 58 1015.1
20221203050812 24 164 1.0 1.0 0.00 0.00 0.00 59 1015.4
20221203050311 24 189 1.0 1.0 0.00 0.00 0.00 59 1015.3
20221203045811 25 178 2.0 2.0 0.00 0.00 0.00 59 1015.1
20221203045312 25 171 2.0 2.0 0.00 0.00 0.00 58 1015.3
20221203044811 24 149 3.0 3.0 0.00 0.00 0.00 59 1015.4
20221203044311 25 152 2.0 2.0 0.00 0.00 0.00 59 1015.1
20221203043811 25 181 2.0 2.0 0.00 0.00 0.00 59 1015.1
20221203043310 25 215 0.0 1.0 0.00 0.00 0.00 58 1015.3
20221203042808 25 209 0.0 1.0 0.00 0.00 0.00 57 1015.1
20221203042306 25 215 0.0 0.0 0.00 0.00 0.00 57 1015.1
20221203041804 25 224 1.0 1.0 0.00 0.00 0.00 57 1015.0
20221203041302 26 210 0.0 1.0 0.00 0.00 0.00 55 1014.9
20221203040802 26 227 1.0 1.0 0.00 0.00 0.00 54 1014.9
20221203040302 26 222 0.0 1.0 0.00 0.00 0.00 54 1014.8
20221203035801 26 210 0.0 1.0 0.00 0.00 0.00 53 1014.5
20221203035301 26 223 3.0 5.0 0.00 0.00 0.00 52 1014.5
20221203034801 26 244 2.0 3.0 0.00 0.00 0.00 53 1014.7
20221203034301 27 241 1.0 1.0 0.00 0.00 0.00 52 1014.5
20221203033759 27 211 0.0 0.0 0.00 0.00 0.00 52 1014.2
20221203033257 27 207 0.0 0.0 0.00 0.00 0.00 51 1014.3
20221203032758 28 207 0.0 1.0 0.00 0.00 0.00 50 1014.4
20221203032256 28 178 1.0 2.0 0.00 0.00 0.00 50 1014.3
20221203031754 28 210 1.0 2.0 0.00 0.00 0.00 50 1014.4
20221203031254 28 243 3.0 6.0 0.00 0.00 0.00 50 1014.3
20221203030752 27 205 5.0 7.0 0.00 0.00 0.00 51 1014.2
20221203030252 27 230 4.0 6.0 0.00 0.00 0.00 53 1014.2
20221203025751 28 199 3.0 5.0 0.00 0.00 0.00 52 1014.3
20221203025250 28 202 2.0 3.0 0.00 0.00 0.00 49 1014.3
20221203024748 29 83 2.0 3.0 0.00 0.00 0.00 47 1014.3
20221203024248 29 126 4.0 7.0 0.00 0.00 0.00 46 1014.2
20221203023747 29 72 3.0 7.0 0.00 0.00 0.00 48 1014.0
20221203023246 30 50 3.0 3.0 0.00 0.00 0.00 47 1014.1
20221203022746 30 241 0.0 1.0 0.00 0.00 0.00 46 1014.1
20221203022246 30 141 5.0 7.0 0.00 0.00 0.00 45 1013.8
20221203021745 30 185 3.0 5.0 0.00 0.00 0.00 45 1014.0
20221203021244 30 126 5.0 9.0 0.00 0.00 0.00 45 1013.7
20221203020742 31 117 8.0 13.0 0.00 0.00 0.00 44 1013.8
20221203020240 31 69 7.0 10.0 0.00 0.00 0.00 44 1013.6
20221203015740 32 106 5.0 13.0 0.00 0.00 0.00 44 1013.6
20221203015239 32 159 9.0 10.0 0.00 0.00 0.00 44 1013.1
20221203014737 32 120 8.0 17.0 0.00 0.00 0.00 45 1013.3
20221203014236 32 162 12.0 17.0 0.00 0.00 0.00 43 1013.0
20221203013735 32 101 12.0 18.0 0.00 0.00 0.00 43 1013.3